Escapade — YJTN9 — position and weather

sailwx.info

Track history (hours):
 
Tides and Currents Weather Stations Pressure Air Temp Water Temp Dewpoint Dewpoint Depression Visibility Wind Speed Wind Dir Waves Ship Positions

Escapade

Last reported at 2018-Jul-08 20:40 UTC. Time now 2018-Aug-16 20:17 UTC.
Position N 37°19' E 023°21'.
Warning: this ship's position is 38 days out of date.

Length 38 m; draft 4.1 m.

Type: Other ship. MMSI: 577203000.

Date/timePositionNaut miles runAvg speedWind from/ knotsBaromVisibWave heightAir tempDewpointWater temp
2018-Jul-08 20:40N 37°19' E 023°21'2 9.4
2018-Jul-08 20:29N 37°20' E 023°23'3 3.0
2018-Jul-08 19:21N 37°21' E 023°27'0 0.1
2018-Jul-08 18:57N 37°21' E 023°27'0 0.7
2018-Jul-08 18:27N 37°21' E 023°27'0 0.0
2018-Jul-08 09:55N 37°21' E 023°28'61 2.4
2018-Jul-07 08:14N 37°23' E 024°44'210.1
2018-Jul-07 08:00N 37°22' E 024°47'510.1
2018-Jul-07 07:30N 37°21' E 024°53'5 9.8
2018-Jul-07 07:00N 37°21' E 024°59'6 9.7
2018-Jul-07 06:26N 37°21' E 025°06'4 9.8
2018-Jul-07 06:00N 37°21' E 025°11'5 9.8
2018-Jul-07 05:30N 37°22' E 025°18'3 6.9
2018-Jul-07 05:00N 37°24' E 025°20'0 0.0
2018-Jul-07 04:28N 37°24' E 025°20'0 0.0
2018-Jul-07 03:58N 37°24' E 025°20'0 0.0
2018-Jul-07 03:28N 37°24' E 025°20'0 0.1
2018-Jul-07 02:58N 37°24' E 025°20'0 0.1
2018-Jul-07 02:28N 37°24' E 025°20'0 0.1
2018-Jul-07 01:58N 37°25' E 025°20'0 0.0
2018-Jul-07 01:28N 37°25' E 025°20'0 0.0
2018-Jul-07 00:58N 37°24' E 025°20'0 0.0
2018-Jul-07 00:28N 37°24' E 025°20'0 0.0
2018-Jul-06 23:58N 37°25' E 025°20'0 0.0
2018-Jul-06 23:28N 37°25' E 025°20'0 0.0
2018-Jul-06 22:58N 37°25' E 025°20'0 0.0
2018-Jul-06 22:28N 37°25' E 025°20'0 0.0
2018-Jul-06 21:58N 37°25' E 025°20'0 0.0
2018-Jul-06 21:28N 37°25' E 025°20'0 0.1
2018-Jul-06 20:58N 37°25' E 025°20'0 0.0
2018-Jul-06 20:28N 37°25' E 025°20'0 0.1
2018-Jul-06 19:58N 37°25' E 025°20'0 0.0
2018-Jul-06 19:28N 37°25' E 025°20'0 0.1
2018-Jul-06 18:58N 37°25' E 025°20'0 0.0
2018-Jul-06 18:28N 37°24' E 025°20'0 0.0
2018-Jul-06 17:58N 37°25' E 025°20'0 0.0
2018-Jul-06 17:28N 37°24' E 025°20'0 0.0
2018-Jul-06 16:58N 37°24' E 025°20'0 0.1
2018-Jul-06 16:28N 37°25' E 025°20'0 0.0
2018-Jul-06 15:58N 37°25' E 025°20'0 0.0
2018-Jul-06 15:25N 37°25' E 025°20'0 0.0
2018-Jul-06 14:55N 37°25' E 025°20'0 0.0
2018-Jul-06 14:28N 37°25' E 025°20'0 0.0
2018-Jul-06 13:58N 37°25' E 025°20'0 0.0
2018-Jul-06 13:25N 37°25' E 025°20'0 0.0
2018-Jul-06 12:58N 37°25' E 025°20'0 0.0
2018-Jul-06 12:28N 37°25' E 025°20'0 0.0
2018-Jul-06 11:58N 37°25' E 025°20'0 0.0
2018-Jul-06 11:28N 37°25' E 025°20'0 0.0
2018-Jul-06 10:55N 37°25' E 025°20'0 0.0
2018-Jul-06 10:28N 37°25' E 025°20'0 0.0
2018-Jul-06 09:58N 37°25' E 025°20'0 0.0
2018-Jul-06 09:25N 37°25' E 025°20'0 0.1
2018-Jul-06 09:01N 37°24' E 025°20'0 0.5
2018-Jul-06 08:29N 37°24' E 025°20'0 0.0
2018-Jul-06 07:59N 37°24' E 025°20'0 0.0
2018-Jul-06 07:29N 37°24' E 025°20'0 0.1
2018-Jul-06 06:59N 37°24' E 025°20'0 0.0
2018-Jul-06 06:29N 37°24' E 025°20'0 0.0
2018-Jul-06 05:59N 37°24' E 025°20'0 0.0
2018-Jul-06 05:29N 37°24' E 025°20'0 0.0
2018-Jul-06 04:59N 37°24' E 025°20'0 0.0
2018-Jul-06 04:29N 37°24' E 025°20'0 0.0
2018-Jul-06 03:59N 37°24' E 025°20'0 0.0
2018-Jul-06 03:29N 37°24' E 025°20'0 0.0
2018-Jul-06 02:59N 37°24' E 025°20'0 0.0
2018-Jul-06 02:29N 37°24' E 025°20'0 0.0
2018-Jul-06 01:59N 37°24' E 025°20'0 0.0
2018-Jul-06 01:29N 37°24' E 025°20'0 0.0
2018-Jul-06 00:59N 37°24' E 025°20'0 0.0
2018-Jul-06 00:23N 37°24' E 025°20'0 0.0
2018-Jul-05 23:59N 37°24' E 025°20'0 0.0
2018-Jul-05 23:26N 37°24' E 025°20'0 0.1
2018-Jul-05 22:59N 37°24' E 025°20'0 0.0
2018-Jul-05 22:26N 37°24' E 025°20'0 0.0
2018-Jul-05 21:59N 37°24' E 025°20'0 0.0
2018-Jul-05 21:29N 37°24' E 025°20'0 0.0
2018-Jul-05 20:59N 37°24' E 025°20'0 0.0
2018-Jul-05 20:29N 37°24' E 025°20'0 0.0
2018-Jul-05 19:59N 37°24' E 025°20'0 0.0
2018-Jul-05 19:29N 37°24' E 025°20'0 0.1
2018-Jul-05 18:59N 37°24' E 025°20'0 0.1
2018-Jul-05 18:26N 37°24' E 025°20'0 0.0
2018-Jul-05 17:59N 37°24' E 025°20'0 0.0
2018-Jul-05 17:29N 37°24' E 025°20'0 0.0
2018-Jul-05 16:59N 37°24' E 025°20'0 0.0
2018-Jul-05 16:29N 37°24' E 025°20'0 0.0
2018-Jul-05 15:59N 37°24' E 025°20'0 0.0
2018-Jul-05 15:29N 37°24' E 025°20'0 0.0
2018-Jul-05 14:59N 37°24' E 025°20'0 0.0
2018-Jul-05 14:29N 37°24' E 025°20'0 0.0
2018-Jul-05 13:29N 37°24' E 025°20'0 0.1
2018-Jul-05 13:01N 37°24' E 025°20'1 1.2
2018-Jul-05 12:30N 37°24' E 025°20'4 9.0
2018-Jul-05 12:00N 37°20' E 025°19'4 8.8
2018-Jul-05 11:30N 37°15' E 025°19'5 9.0
2018-Jul-05 11:00N 37°11' E 025°19'5 9.7
2018-Jul-05 10:30N 37°06' E 025°19'5 9.3
2018-Jul-05 10:00N 37°01' E 025°19'  
2018-Jul-02 08:19N 37°31' E 023°57'510.1
2018-Jul-02 07:50N 37°36' E 023°54'4 9.5
2018-Jul-02 07:28N 37°39' E 023°51'5 9.3
2018-Jul-02 06:57N 37°43' E 023°49'4 9.8
2018-Jul-02 06:30N 37°47' E 023°46'510.1
2018-Jul-02 06:01N 37°51' E 023°43'5 9.5
2018-Jul-02 05:31N 37°55' E 023°41'1 1.0
2018-Jul-02 05:01N 37°56' E 023°41'0 0.0
2018-Jul-02 04:29N 37°56' E 023°41'0 0.0
2018-Jul-02 03:56N 37°56' E 023°41'0 0.0
2018-Jul-02 03:29N 37°56' E 023°41'0 0.0
2018-Jul-02 02:59N 37°56' E 023°41'0 0.0
2018-Jul-02 02:29N 37°56' E 023°41'0 0.0
2018-Jul-02 01:59N 37°56' E 023°41'0 0.0
2018-Jul-02 01:29N 37°56' E 023°41'0 0.0
2018-Jul-02 00:59N 37°56' E 023°41'0 0.0
2018-Jul-02 00:29N 37°56' E 023°41'0 0.0
2018-Jul-01 23:59N 37°56' E 023°41'0 0.0
2018-Jul-01 23:26N 37°56' E 023°41'0 0.0
2018-Jul-01 22:59N 37°56' E 023°41'0 0.0
2018-Jul-01 22:29N 37°56' E 023°41'0 0.0
2018-Jul-01 21:59N 37°56' E 023°41'0 0.0
2018-Jul-01 21:29N 37°56' E 023°41'0 0.0
2018-Jul-01 20:59N 37°56' E 023°41'0 0.0
2018-Jul-01 20:29N 37°56' E 023°41'0 0.0
2018-Jul-01 19:56N 37°56' E 023°41'0 0.0
2018-Jul-01 19:26N 37°56' E 023°41'0 0.0
2018-Jul-01 18:59N 37°56' E 023°41'0 0.0
2018-Jul-01 18:29N 37°56' E 023°41'0 0.0
2018-Jul-01 17:59N 37°56' E 023°41'0 0.0
2018-Jul-01 17:29N 37°56' E 023°41'0 0.0
2018-Jul-01 16:59N 37°56' E 023°41'0 0.0
2018-Jul-01 16:29N 37°56' E 023°41'0 0.0
2018-Jul-01 15:59N 37°56' E 023°41'0 0.0
2018-Jul-01 15:26N 37°56' E 023°41'0 0.0
2018-Jul-01 14:59N 37°56' E 023°41'0 0.0
2018-Jul-01 14:29N 37°56' E 023°41'0 0.0
2018-Jul-01 13:59N 37°56' E 023°41'0 0.0
2018-Jul-01 13:23N 37°56' E 023°41'0 0.0
2018-Jul-01 12:59N 37°56' E 023°41'0 0.0
2018-Jul-01 12:29N 37°56' E 023°41'0 0.0
2018-Jul-01 11:59N 37°56' E 023°41'0 0.0
2018-Jul-01 11:29N 37°56' E 023°41'0 0.0
2018-Jul-01 10:59N 37°56' E 023°41'0 0.0
2018-Jul-01 10:29N 37°56' E 023°41'0 0.0
2018-Jul-01 09:59N 37°56' E 023°41'0 0.0
2018-Jul-01 09:29N 37°56' E 023°41'0 0.0
2018-Jul-01 08:59N 37°56' E 023°41'0 0.0
2018-Jul-01 08:29N 37°56' E 023°41'0 0.0
2018-Jul-01 07:59N 37°56' E 023°41'0 0.0
2018-Jul-01 07:29N 37°56' E 023°41'0 0.0
2018-Jul-01 06:59N 37°56' E 023°41'0 0.0
2018-Jul-01 06:29N 37°56' E 023°41'0 0.0
2018-Jul-01 05:59N 37°56' E 023°41'0 0.0
2018-Jul-01 05:29N 37°56' E 023°41'0 0.0
2018-Jul-01 04:59N 37°56' E 023°41'0 0.0
2018-Jul-01 04:29N 37°56' E 023°41'0 0.0
2018-Jul-01 03:59N 37°56' E 023°41'0 0.0
2018-Jul-01 03:29N 37°56' E 023°41'0 0.0
2018-Jul-01 02:59N 37°56' E 023°41'0 0.0
2018-Jul-01 02:29N 37°56' E 023°41'0 0.0
2018-Jul-01 01:59N 37°56' E 023°41'0 0.0
2018-Jul-01 01:29N 37°56' E 023°41'0 0.0
2018-Jul-01 00:59N 37°56' E 023°41'0 0.0
2018-Jul-01 00:29N 37°56' E 023°41'0 0.0
2018-Jun-30 23:59N 37°56' E 023°41'0 0.0
2018-Jun-30 23:29N 37°56' E 023°41'0 0.0
2018-Jun-30 22:59N 37°56' E 023°41'0 0.0
2018-Jun-30 22:29N 37°56' E 023°41'0 0.0
2018-Jun-30 21:59N 37°56' E 023°41'0 0.0
2018-Jun-30 21:29N 37°56' E 023°41'0 0.0
2018-Jun-30 20:59N 37°56' E 023°41'0 0.0
2018-Jun-30 20:29N 37°56' E 023°41'0 0.0
2018-Jun-30 19:59N 37°56' E 023°41'0 0.0
2018-Jun-30 19:29N 37°56' E 023°41'0 0.0
2018-Jun-30 18:59N 37°56' E 023°41'0 0.0
2018-Jun-30 18:26N 37°56' E 023°41'0 0.0
2018-Jun-30 17:59N 37°56' E 023°41'0 0.0
2018-Jun-30 17:29N 37°56' E 023°41'0 0.0
2018-Jun-30 16:59N 37°56' E 023°41'0 0.0
2018-Jun-30 16:29N 37°56' E 023°41'0 0.0
2018-Jun-30 15:59N 37°56' E 023°41'0 0.0
2018-Jun-30 15:29N 37°56' E 023°41'0 0.0
2018-Jun-30 14:59N 37°56' E 023°41'0 0.0
2018-Jun-30 14:29N 37°56' E 023°41'0 0.0
2018-Jun-30 13:59N 37°56' E 023°41'0 0.0
2018-Jun-30 13:29N 37°56' E 023°41'0 0.0
2018-Jun-30 12:59N 37°56' E 023°41'0 0.0
2018-Jun-30 12:29N 37°56' E 023°41'0 0.0
2018-Jun-30 11:59N 37°56' E 023°41'0 0.0
2018-Jun-30 11:29N 37°56' E 023°41'0 0.0
2018-Jun-30 10:59N 37°56' E 023°41'0 0.0
2018-Jun-30 10:29N 37°56' E 023°41'0 0.0
2018-Jun-30 09:59N 37°56' E 023°41'0 0.0
2018-Jun-30 09:29N 37°56' E 023°41'0 0.0
2018-Jun-30 08:59N 37°56' E 023°41'0 0.0
2018-Jun-30 08:29N 37°56' E 023°41'0 0.0
2018-Jun-30 07:59N 37°56' E 023°41'0 0.0
2018-Jun-30 07:29N 37°56' E 023°41'0 0.0
2018-Jun-30 06:59N 37°56' E 023°41'0 0.0
2018-Jun-30 06:29N 37°56' E 023°41'0 0.0
2018-Jun-30 05:59N 37°56' E 023°41'0 0.0
2018-Jun-30 05:29N 37°56' E 023°41'0 0.0
2018-Jun-30 04:59N 37°56' E 023°41'0 0.0
2018-Jun-30 04:29N 37°56' E 023°41'0 0.0
2018-Jun-30 03:59N 37°56' E 023°41'0 0.0
2018-Jun-30 03:29N 37°56' E 023°41'0 0.0
2018-Jun-30 02:59N 37°56' E 023°41'0 0.0
2018-Jun-30 02:29N 37°56' E 023°41'0 0.0
2018-Jun-30 01:59N 37°56' E 023°41'0 0.0
2018-Jun-30 01:29N 37°56' E 023°41'0 0.0
2018-Jun-30 00:59N 37°56' E 023°41'0 0.0
2018-Jun-30 00:29N 37°56' E 023°41'0 0.0
2018-Jun-29 23:59N 37°56' E 023°41'0 0.0
2018-Jun-29 23:29N 37°56' E 023°41'0 0.0
2018-Jun-29 22:59N 37°56' E 023°41'0 0.0
2018-Jun-29 22:29N 37°56' E 023°41'0 0.0
2018-Jun-29 21:59N 37°56' E 023°41'0 0.0
2018-Jun-29 21:29N 37°56' E 023°41'0 0.0
2018-Jun-29 20:59N 37°56' E 023°41'0 0.0
2018-Jun-29 20:29N 37°56' E 023°41'0 0.0
2018-Jun-29 19:59N 37°56' E 023°41'0 0.0
2018-Jun-29 19:29N 37°56' E 023°41'0 0.0
2018-Jun-29 18:59N 37°56' E 023°41'0 0.0
2018-Jun-29 18:29N 37°56' E 023°41'0 0.0
2018-Jun-29 17:59N 37°56' E 023°41'0 0.0
2018-Jun-29 17:29N 37°56' E 023°41'0 0.0
2018-Jun-29 16:59N 37°56' E 023°41'0 0.0
2018-Jun-29 16:29N 37°56' E 023°41'0 0.0
2018-Jun-29 15:59N 37°56' E 023°41'0 0.0
2018-Jun-29 15:29N 37°56' E 023°41'0 0.0
2018-Jun-29 14:59N 37°56' E 023°41'0 0.0
2018-Jun-29 14:29N 37°56' E 023°41'0 0.0
2018-Jun-29 13:59N 37°56' E 023°41'0 0.0
2018-Jun-29 13:29N 37°56' E 023°41'0 0.0
2018-Jun-29 12:59N 37°56' E 023°41'0 0.0
2018-Jun-29 12:29N 37°56' E 023°41'0 0.0
2018-Jun-29 11:59N 37°56' E 023°41'0 0.0
2018-Jun-29 11:29N 37°56' E 023°41'0 0.0
2018-Jun-29 10:59N 37°56' E 023°41'0 0.0
2018-Jun-29 10:29N 37°56' E 023°41'0 0.0
2018-Jun-29 09:59N 37°56' E 023°41'0 0.0
2018-Jun-29 09:29N 37°56' E 023°41'0 0.0
2018-Jun-29 08:59N 37°56' E 023°41'0 0.0
2018-Jun-29 08:29N 37°56' E 023°41'0 0.0
2018-Jun-29 07:59N 37°56' E 023°41'0 0.0
2018-Jun-29 07:29N 37°56' E 023°41'0 0.0
2018-Jun-29 06:59N 37°56' E 023°41'0 0.0
2018-Jun-29 06:29N 37°56' E 023°41'0 0.0
2018-Jun-29 05:59N 37°56' E 023°41'0 0.0
2018-Jun-29 05:29N 37°56' E 023°41'0 0.0
2018-Jun-29 04:59N 37°56' E 023°41'0 0.0
2018-Jun-29 04:29N 37°56' E 023°41'0 0.0
2018-Jun-29 03:59N 37°56' E 023°41'0 0.0
2018-Jun-29 03:29N 37°56' E 023°41'0 0.0
2018-Jun-29 02:59N 37°56' E 023°41'0 0.0
2018-Jun-29 02:29N 37°56' E 023°41'0 0.0
2018-Jun-29 01:59N 37°56' E 023°41'0 0.0
2018-Jun-29 01:29N 37°56' E 023°41'0 0.0
2018-Jun-29 00:59N 37°56' E 023°41'0 0.0
2018-Jun-29 00:29N 37°56' E 023°41'0 0.0
2018-Jun-28 23:59N 37°56' E 023°41'0 0.0
2018-Jun-28 23:29N 37°56' E 023°41'0 0.0
2018-Jun-28 22:59N 37°56' E 023°41'0 0.0
2018-Jun-28 22:29N 37°56' E 023°41'0 0.0
2018-Jun-28 21:59N 37°56' E 023°41'0 0.0
2018-Jun-28 21:29N 37°56' E 023°41'0 0.0
2018-Jun-28 20:56N 37°56' E 023°41'  
Track history (hours):
 
Tides and Currents Weather Stations Pressure Air Temp Water Temp Dewpoint Dewpoint Depression Visibility Wind Speed Wind Dir Waves Ship Positions

Escapade

Last reported at 2018-Jul-08 20:40 UTC. Time now 2018-Aug-16 20:17 UTC.
Position N 37°19' E 023°21'.
Warning: this ship's position is 38 days out of date.

Length 38 m; draft 4.1 m.

Type: Other ship. MMSI: 577203000.

Date/timePositionNaut miles runAvg speedWind from/ knotsBaromVisibWave heightAir tempDewpointWater temp
2018-Jul-08 20:40N 37°19' E 023°21'2 9.4
2018-Jul-08 20:29N 37°20' E 023°23'3 3.0
2018-Jul-08 19:21N 37°21' E 023°27'0 0.1
2018-Jul-08 18:57N 37°21' E 023°27'0 0.7
2018-Jul-08 18:27N 37°21' E 023°27'0 0.0
2018-Jul-08 09:55N 37°21' E 023°28'61 2.4
2018-Jul-07 08:14N 37°23' E 024°44'210.1
2018-Jul-07 08:00N 37°22' E 024°47'510.1
2018-Jul-07 07:30N 37°21' E 024°53'5 9.8
2018-Jul-07 07:00N 37°21' E 024°59'6 9.7
2018-Jul-07 06:26N 37°21' E 025°06'4 9.8
2018-Jul-07 06:00N 37°21' E 025°11'5 9.8
2018-Jul-07 05:30N 37°22' E 025°18'3 6.9
2018-Jul-07 05:00N 37°24' E 025°20'0 0.0
2018-Jul-07 04:28N 37°24' E 025°20'0 0.0
2018-Jul-07 03:58N 37°24' E 025°20'0 0.0
2018-Jul-07 03:28N 37°24' E 025°20'0 0.1
2018-Jul-07 02:58N 37°24' E 025°20'0 0.1
2018-Jul-07 02:28N 37°24' E 025°20'0 0.1
2018-Jul-07 01:58N 37°25' E 025°20'0 0.0
2018-Jul-07 01:28N 37°25' E 025°20'0 0.0
2018-Jul-07 00:58N 37°24' E 025°20'0 0.0
2018-Jul-07 00:28N 37°24' E 025°20'0 0.0
2018-Jul-06 23:58N 37°25' E 025°20'0 0.0
2018-Jul-06 23:28N 37°25' E 025°20'0 0.0
2018-Jul-06 22:58N 37°25' E 025°20'0 0.0
2018-Jul-06 22:28N 37°25' E 025°20'0 0.0
2018-Jul-06 21:58N 37°25' E 025°20'0 0.0
2018-Jul-06 21:28N 37°25' E 025°20'0 0.1
2018-Jul-06 20:58N 37°25' E 025°20'0 0.0
2018-Jul-06 20:28N 37°25' E 025°20'0 0.1
2018-Jul-06 19:58N 37°25' E 025°20'0 0.0
2018-Jul-06 19:28N 37°25' E 025°20'0 0.1
2018-Jul-06 18:58N 37°25' E 025°20'0 0.0
2018-Jul-06 18:28N 37°24' E 025°20'0 0.0
2018-Jul-06 17:58N 37°25' E 025°20'0 0.0
2018-Jul-06 17:28N 37°24' E 025°20'0 0.0
2018-Jul-06 16:58N 37°24' E 025°20'0 0.1
2018-Jul-06 16:28N 37°25' E 025°20'0 0.0
2018-Jul-06 15:58N 37°25' E 025°20'0 0.0
2018-Jul-06 15:25N 37°25' E 025°20'0 0.0
2018-Jul-06 14:55N 37°25' E 025°20'0 0.0
2018-Jul-06 14:28N 37°25' E 025°20'0 0.0
2018-Jul-06 13:58N 37°25' E 025°20'0 0.0
2018-Jul-06 13:25N 37°25' E 025°20'0 0.0
2018-Jul-06 12:58N 37°25' E 025°20'0 0.0
2018-Jul-06 12:28N 37°25' E 025°20'0 0.0
2018-Jul-06 11:58N 37°25' E 025°20'0 0.0
2018-Jul-06 11:28N 37°25' E 025°20'0 0.0
2018-Jul-06 10:55N 37°25' E 025°20'0 0.0
2018-Jul-06 10:28N 37°25' E 025°20'0 0.0
2018-Jul-06 09:58N 37°25' E 025°20'0 0.0
2018-Jul-06 09:25N 37°25' E 025°20'0 0.1
2018-Jul-06 09:01N 37°24' E 025°20'0 0.5
2018-Jul-06 08:29N 37°24' E 025°20'0 0.0
2018-Jul-06 07:59N 37°24' E 025°20'0 0.0
2018-Jul-06 07:29N 37°24' E 025°20'0 0.1
2018-Jul-06 06:59N 37°24' E 025°20'0 0.0
2018-Jul-06 06:29N 37°24' E 025°20'0 0.0
2018-Jul-06 05:59N 37°24' E 025°20'0 0.0
2018-Jul-06 05:29N 37°24' E 025°20'0 0.0
2018-Jul-06 04:59N 37°24' E 025°20'0 0.0
2018-Jul-06 04:29N 37°24' E 025°20'0 0.0
2018-Jul-06 03:59N 37°24' E 025°20'0 0.0
2018-Jul-06 03:29N 37°24' E 025°20'0 0.0
2018-Jul-06 02:59N 37°24' E 025°20'0 0.0
2018-Jul-06 02:29N 37°24' E 025°20'0 0.0
2018-Jul-06 01:59N 37°24' E 025°20'0 0.0
2018-Jul-06 01:29N 37°24' E 025°20'0 0.0
2018-Jul-06 00:59N 37°24' E 025°20'0 0.0
2018-Jul-06 00:23N 37°24' E 025°20'0 0.0
2018-Jul-05 23:59N 37°24' E 025°20'0 0.0
2018-Jul-05 23:26N 37°24' E 025°20'0 0.1
2018-Jul-05 22:59N 37°24' E 025°20'0 0.0
2018-Jul-05 22:26N 37°24' E 025°20'0 0.0
2018-Jul-05 21:59N 37°24' E 025°20'0 0.0
2018-Jul-05 21:29N 37°24' E 025°20'0 0.0
2018-Jul-05 20:59N 37°24' E 025°20'0 0.0
2018-Jul-05 20:29N 37°24' E 025°20'0 0.0
2018-Jul-05 19:59N 37°24' E 025°20'0 0.0
2018-Jul-05 19:29N 37°24' E 025°20'0 0.1
2018-Jul-05 18:59N 37°24' E 025°20'0 0.1
2018-Jul-05 18:26N 37°24' E 025°20'0 0.0
2018-Jul-05 17:59N 37°24' E 025°20'0 0.0
2018-Jul-05 17:29N 37°24' E 025°20'0 0.0
2018-Jul-05 16:59N 37°24' E 025°20'0 0.0
2018-Jul-05 16:29N 37°24' E 025°20'0 0.0
2018-Jul-05 15:59N 37°24' E 025°20'0 0.0
2018-Jul-05 15:29N 37°24' E 025°20'0 0.0
2018-Jul-05 14:59N 37°24' E 025°20'0 0.0
2018-Jul-05 14:29N 37°24' E 025°20'0 0.0
2018-Jul-05 13:29N 37°24' E 025°20'0 0.1
2018-Jul-05 13:01N 37°24' E 025°20'1 1.2
2018-Jul-05 12:30N 37°24' E 025°20'4 9.0
2018-Jul-05 12:00N 37°20' E 025°19'4 8.8
2018-Jul-05 11:30N 37°15' E 025°19'5 9.0
2018-Jul-05 11:00N 37°11' E 025°19'5 9.7
2018-Jul-05 10:30N 37°06' E 025°19'5 9.3
2018-Jul-05 10:00N 37°01' E 025°19'  
2018-Jul-02 08:19N 37°31' E 023°57'510.1
2018-Jul-02 07:50N 37°36' E 023°54'4 9.5
2018-Jul-02 07:28N 37°39' E 023°51'5 9.3
2018-Jul-02 06:57N 37°43' E 023°49'4 9.8
2018-Jul-02 06:30N 37°47' E 023°46'510.1
2018-Jul-02 06:01N 37°51' E 023°43'5 9.5
2018-Jul-02 05:31N 37°55' E 023°41'1 1.0
2018-Jul-02 05:01N 37°56' E 023°41'0 0.0
2018-Jul-02 04:29N 37°56' E 023°41'0 0.0
2018-Jul-02 03:56N 37°56' E 023°41'0 0.0
2018-Jul-02 03:29N 37°56' E 023°41'0 0.0
2018-Jul-02 02:59N 37°56' E 023°41'0 0.0
2018-Jul-02 02:29N 37°56' E 023°41'0 0.0
2018-Jul-02 01:59N 37°56' E 023°41'0 0.0
2018-Jul-02 01:29N 37°56' E 023°41'0 0.0
2018-Jul-02 00:59N 37°56' E 023°41'0 0.0
2018-Jul-02 00:29N 37°56' E 023°41'0 0.0
2018-Jul-01 23:59N 37°56' E 023°41'0 0.0
2018-Jul-01 23:26N 37°56' E 023°41'0 0.0
2018-Jul-01 22:59N 37°56' E 023°41'0 0.0
2018-Jul-01 22:29N 37°56' E 023°41'0 0.0
2018-Jul-01 21:59N 37°56' E 023°41'0 0.0
2018-Jul-01 21:29N 37°56' E 023°41'0 0.0
2018-Jul-01 20:59N 37°56' E 023°41'0 0.0
2018-Jul-01 20:29N 37°56' E 023°41'0 0.0
2018-Jul-01 19:56N 37°56' E 023°41'0 0.0
2018-Jul-01 19:26N 37°56' E 023°41'0 0.0
2018-Jul-01 18:59N 37°56' E 023°41'0 0.0
2018-Jul-01 18:29N 37°56' E 023°41'0 0.0
2018-Jul-01 17:59N 37°56' E 023°41'0 0.0
2018-Jul-01 17:29N 37°56' E 023°41'0 0.0
2018-Jul-01 16:59N 37°56' E 023°41'0 0.0
2018-Jul-01 16:29N 37°56' E 023°41'0 0.0
2018-Jul-01 15:59N 37°56' E 023°41'0 0.0
2018-Jul-01 15:26N 37°56' E 023°41'0 0.0
2018-Jul-01 14:59N 37°56' E 023°41'0 0.0
2018-Jul-01 14:29N 37°56' E 023°41'0 0.0
2018-Jul-01 13:59N 37°56' E 023°41'0 0.0
2018-Jul-01 13:23N 37°56' E 023°41'0 0.0
2018-Jul-01 12:59N 37°56' E 023°41'0 0.0
2018-Jul-01 12:29N 37°56' E 023°41'0 0.0
2018-Jul-01 11:59N 37°56' E 023°41'0 0.0
2018-Jul-01 11:29N 37°56' E 023°41'0 0.0
2018-Jul-01 10:59N 37°56' E 023°41'0 0.0
2018-Jul-01 10:29N 37°56' E 023°41'0 0.0
2018-Jul-01 09:59N 37°56' E 023°41'0 0.0
2018-Jul-01 09:29N 37°56' E 023°41'0 0.0
2018-Jul-01 08:59N 37°56' E 023°41'0 0.0
2018-Jul-01 08:29N 37°56' E 023°41'0 0.0
2018-Jul-01 07:59N 37°56' E 023°41'0 0.0
2018-Jul-01 07:29N 37°56' E 023°41'0 0.0
2018-Jul-01 06:59N 37°56' E 023°41'0 0.0
2018-Jul-01 06:29N 37°56' E 023°41'0 0.0
2018-Jul-01 05:59N 37°56' E 023°41'0 0.0
2018-Jul-01 05:29N 37°56' E 023°41'0 0.0
2018-Jul-01 04:59N 37°56' E 023°41'0 0.0
2018-Jul-01 04:29N 37°56' E 023°41'0 0.0
2018-Jul-01 03:59N 37°56' E 023°41'0 0.0
2018-Jul-01 03:29N 37°56' E 023°41'0 0.0
2018-Jul-01 02:59N 37°56' E 023°41'0 0.0
2018-Jul-01 02:29N 37°56' E 023°41'0 0.0
2018-Jul-01 01:59N 37°56' E 023°41'0 0.0
2018-Jul-01 01:29N 37°56' E 023°41'0 0.0
2018-Jul-01 00:59N 37°56' E 023°41'0 0.0
2018-Jul-01 00:29N 37°56' E 023°41'0 0.0
2018-Jun-30 23:59N 37°56' E 023°41'0 0.0
2018-Jun-30 23:29N 37°56' E 023°41'0 0.0
2018-Jun-30 22:59N 37°56' E 023°41'0 0.0
2018-Jun-30 22:29N 37°56' E 023°41'0 0.0
2018-Jun-30 21:59N 37°56' E 023°41'0 0.0
2018-Jun-30 21:29N 37°56' E 023°41'0 0.0
2018-Jun-30 20:59N 37°56' E 023°41'0 0.0
2018-Jun-30 20:29N 37°56' E 023°41'0 0.0
2018-Jun-30 19:59N 37°56' E 023°41'0 0.0
2018-Jun-30 19:29N 37°56' E 023°41'0 0.0
2018-Jun-30 18:59N 37°56' E 023°41'0 0.0
2018-Jun-30 18:26N 37°56' E 023°41'0 0.0
2018-Jun-30 17:59N 37°56' E 023°41'0 0.0
2018-Jun-30 17:29N 37°56' E 023°41'0 0.0
2018-Jun-30 16:59N 37°56' E 023°41'0 0.0
2018-Jun-30 16:29N 37°56' E 023°41'0 0.0
2018-Jun-30 15:59N 37°56' E 023°41'0 0.0
2018-Jun-30 15:29N 37°56' E 023°41'0 0.0
2018-Jun-30 14:59N 37°56' E 023°41'0 0.0
2018-Jun-30 14:29N 37°56' E 023°41'0 0.0
2018-Jun-30 13:59N 37°56' E 023°41'0 0.0
2018-Jun-30 13:29N 37°56' E 023°41'0 0.0
2018-Jun-30 12:59N 37°56' E 023°41'0 0.0
2018-Jun-30 12:29N 37°56' E 023°41'0 0.0
2018-Jun-30 11:59N 37°56' E 023°41'0 0.0
2018-Jun-30 11:29N 37°56' E 023°41'0 0.0
2018-Jun-30 10:59N 37°56' E 023°41'0 0.0
2018-Jun-30 10:29N 37°56' E 023°41'0 0.0
2018-Jun-30 09:59N 37°56' E 023°41'0 0.0
2018-Jun-30 09:29N 37°56' E 023°41'0 0.0
2018-Jun-30 08:59N 37°56' E 023°41'0 0.0
2018-Jun-30 08:29N 37°56' E 023°41'0 0.0
2018-Jun-30 07:59N 37°56' E 023°41'0 0.0
2018-Jun-30 07:29N 37°56' E 023°41'0 0.0
2018-Jun-30 06:59N 37°56' E 023°41'0 0.0
2018-Jun-30 06:29N 37°56' E 023°41'0 0.0
2018-Jun-30 05:59N 37°56' E 023°41'0 0.0
2018-Jun-30 05:29N 37°56' E 023°41'0 0.0
2018-Jun-30 04:59N 37°56' E 023°41'0 0.0
2018-Jun-30 04:29N 37°56' E 023°41'0 0.0
2018-Jun-30 03:59N 37°56' E 023°41'0 0.0
2018-Jun-30 03:29N 37°56' E 023°41'0 0.0
2018-Jun-30 02:59N 37°56' E 023°41'0 0.0
2018-Jun-30 02:29N 37°56' E 023°41'0 0.0
2018-Jun-30 01:59N 37°56' E 023°41'0 0.0
2018-Jun-30 01:29N 37°56' E 023°41'0 0.0
2018-Jun-30 00:59N 37°56' E 023°41'0 0.0
2018-Jun-30 00:29N 37°56' E 023°41'0 0.0
2018-Jun-29 23:59N 37°56' E 023°41'0 0.0
2018-Jun-29 23:29N 37°56' E 023°41'0 0.0
2018-Jun-29 22:59N 37°56' E 023°41'0 0.0
2018-Jun-29 22:29N 37°56' E 023°41'0 0.0
2018-Jun-29 21:59N 37°56' E 023°41'0 0.0
2018-Jun-29 21:29N 37°56' E 023°41'0 0.0
2018-Jun-29 20:59N 37°56' E 023°41'0 0.0
2018-Jun-29 20:29N 37°56' E 023°41'0 0.0
2018-Jun-29 19:59N 37°56' E 023°41'0 0.0
2018-Jun-29 19:29N 37°56' E 023°41'0 0.0
2018-Jun-29 18:59N 37°56' E 023°41'0 0.0
2018-Jun-29 18:29N 37°56' E 023°41'0 0.0
2018-Jun-29 17:59N 37°56' E 023°41'0 0.0
2018-Jun-29 17:29N 37°56' E 023°41'0 0.0
2018-Jun-29 16:59N 37°56' E 023°41'0 0.0
2018-Jun-29 16:29N 37°56' E 023°41'0 0.0
2018-Jun-29 15:59N 37°56' E 023°41'0 0.0
2018-Jun-29 15:29N 37°56' E 023°41'0 0.0
2018-Jun-29 14:59N 37°56' E 023°41'0 0.0
2018-Jun-29 14:29N 37°56' E 023°41'0 0.0
2018-Jun-29 13:59N 37°56' E 023°41'0 0.0
2018-Jun-29 13:29N 37°56' E 023°41'0 0.0
2018-Jun-29 12:59N 37°56' E 023°41'0 0.0
2018-Jun-29 12:29N 37°56' E 023°41'0 0.0
2018-Jun-29 11:59N 37°56' E 023°41'0 0.0
2018-Jun-29 11:29N 37°56' E 023°41'0 0.0
2018-Jun-29 10:59N 37°56' E 023°41'0 0.0
2018-Jun-29 10:29N 37°56' E 023°41'0 0.0
2018-Jun-29 09:59N 37°56' E 023°41'0 0.0
2018-Jun-29 09:29N 37°56' E 023°41'0 0.0
2018-Jun-29 08:59N 37°56' E 023°41'0 0.0
2018-Jun-29 08:29N 37°56' E 023°41'0 0.0
2018-Jun-29 07:59N 37°56' E 023°41'0 0.0
2018-Jun-29 07:29N 37°56' E 023°41'0 0.0
2018-Jun-29 06:59N 37°56' E 023°41'0 0.0
2018-Jun-29 06:29N 37°56' E 023°41'0 0.0
2018-Jun-29 05:59N 37°56' E 023°41'0 0.0
2018-Jun-29 05:29N 37°56' E 023°41'0 0.0
2018-Jun-29 04:59N 37°56' E 023°41'0 0.0
2018-Jun-29 04:29N 37°56' E 023°41'0 0.0
2018-Jun-29 03:59N 37°56' E 023°41'0 0.0
2018-Jun-29 03:29N 37°56' E 023°41'0 0.0
2018-Jun-29 02:59N 37°56' E 023°41'0 0.0
2018-Jun-29 02:29N 37°56' E 023°41'0 0.0
2018-Jun-29 01:59N 37°56' E 023°41'0 0.0
2018-Jun-29 01:29N 37°56' E 023°41'0 0.0
2018-Jun-29 00:59N 37°56' E 023°41'0 0.0
2018-Jun-29 00:29N 37°56' E 023°41'0 0.0
2018-Jun-28 23:59N 37°56' E 023°41'0 0.0
2018-Jun-28 23:29N 37°56' E 023°41'0 0.0
2018-Jun-28 22:59N 37°56' E 023°41'0 0.0
2018-Jun-28 22:29N 37°56' E 023°41'0 0.0
2018-Jun-28 21:59N 37°56' E 023°41'0 0.0
2018-Jun-28 21:29N 37°56' E 023°41'0 0.0
2018-Jun-28 20:56N 37°56' E 023°41'  

Dump ship's entire track history